sensor_id;sensor_type;location;lat;lon;timestamp;temperature;humidity
27567;DHT22;15006;48.584;9.186;2023-07-20T00:02:00;17.00;54.80
27567;DHT22;15006;48.584;9.186;2023-07-20T00:04:28;17.00;54.80
27567;DHT22;15006;48.584;9.186;2023-07-20T00:06:54;17.00;54.80
27567;DHT22;15006;48.584;9.186;2023-07-20T00:09:20;16.90;54.80
27567;DHT22;15006;48.584;9.186;2023-07-20T00:11:51;17.00;54.70
27567;DHT22;15006;48.584;9.186;2023-07-20T00:14:18;17.00;54.60
27567;DHT22;15006;48.584;9.186;2023-07-20T00:16:45;16.90;54.40
27567;DHT22;15006;48.584;9.186;2023-07-20T00:19:25;16.90;54.50
27567;DHT22;15006;48.584;9.186;2023-07-20T00:21:53;16.90;54.50
27567;DHT22;15006;48.584;9.186;2023-07-20T00:24:20;16.90;54.60
27567;DHT22;15006;48.584;9.186;2023-07-20T00:26:46;16.90;54.50
27567;DHT22;15006;48.584;9.186;2023-07-20T00:29:12;16.90;54.50
27567;DHT22;15006;48.584;9.186;2023-07-20T00:31:38;16.90;54.70
27567;DHT22;15006;48.584;9.186;2023-07-20T00:34:05;16.80;54.80
27567;DHT22;15006;48.584;9.186;2023-07-20T00:36:32;16.80;55.10
27567;DHT22;15006;48.584;9.186;2023-07-20T00:38:58;16.80;55.40
27567;DHT22;15006;48.584;9.186;2023-07-20T00:41:24;16.70;55.20
27567;DHT22;15006;48.584;9.186;2023-07-20T00:43:50;16.70;55.50
27567;DHT22;15006;48.584;9.186;2023-07-20T00:46:16;16.70;55.70
27567;DHT22;15006;48.584;9.186;2023-07-20T00:48:42;16.60;55.80
27567;DHT22;15006;48.584;9.186;2023-07-20T00:51:09;16.60;55.90
27567;DHT22;15006;48.584;9.186;2023-07-20T00:53:35;16.50;56.20
27567;DHT22;15006;48.584;9.186;2023-07-20T00:56:01;16.40;56.10
27567;DHT22;15006;48.584;9.186;2023-07-20T00:58:29;16.40;56.30
27567;DHT22;15006;48.584;9.186;2023-07-20T01:00:55;16.30;56.30
27567;DHT22;15006;48.584;9.186;2023-07-20T01:03:21;16.20;56.40
27567;DHT22;15006;48.584;9.186;2023-07-20T01:05:54;16.10;56.50
27567;DHT22;15006;48.584;9.186;2023-07-20T01:08:32;16.10;56.90
27567;DHT22;15006;48.584;9.186;2023-07-20T01:14:26;15.90;56.50
27567;DHT22;15006;48.584;9.186;2023-07-20T01:16:52;15.90;56.70
27567;DHT22;15006;48.584;9.186;2023-07-20T01:19:18;15.90;57.10
27567;DHT22;15006;48.584;9.186;2023-07-20T01:21:59;15.80;57.20
27567;DHT22;15006;48.584;9.186;2023-07-20T01:33:26;15.80;58.40
27567;DHT22;15006;48.584;9.186;2023-07-20T01:35:56;15.70;58.10
27567;DHT22;15006;48.584;9.186;2023-07-20T01:38:24;15.70;58.30
27567;DHT22;15006;48.584;9.186;2023-07-20T01:40:50;15.60;58.00
27567;DHT22;15006;48.584;9.186;2023-07-20T01:43:17;15.60;58.00
27567;DHT22;15006;48.584;9.186;2023-07-20T01:45:43;15.60;58.10
27567;DHT22;15006;48.584;9.186;2023-07-20T01:48:10;15.50;58.90
27567;DHT22;15006;48.584;9.186;2023-07-20T01:50:36;15.50;59.00
27567;DHT22;15006;48.584;9.186;2023-07-20T01:53:02;15.50;58.60
27567;DHT22;15006;48.584;9.186;2023-07-20T01:55:28;15.50;58.60
27567;DHT22;15006;48.584;9.186;2023-07-20T01:57:55;15.50;58.60
27567;DHT22;15006;48.584;9.186;2023-07-20T02:00:21;15.50;58.70
27567;DHT22;15006;48.584;9.186;2023-07-20T02:02:50;15.40;58.70
27567;DHT22;15006;48.584;9.186;2023-07-20T02:05:16;15.40;58.60
27567;DHT22;15006;48.584;9.186;2023-07-20T02:07:43;15.40;58.70
27567;DHT22;15006;48.584;9.186;2023-07-20T02:10:09;15.40;58.50
27567;DHT22;15006;48.584;9.186;2023-07-20T02:12:35;15.40;58.40
27567;DHT22;15006;48.584;9.186;2023-07-20T02:15:02;15.30;58.30
27567;DHT22;15006;48.584;9.186;2023-07-20T02:17:29;15.30;58.30
27567;DHT22;15006;48.584;9.186;2023-07-20T02:19:56;15.20;58.00
27567;DHT22;15006;48.584;9.186;2023-07-20T02:22:23;15.20;58.10
27567;DHT22;15006;48.584;9.186;2023-07-20T02:24:49;15.20;58.10
27567;DHT22;15006;48.584;9.186;2023-07-20T02:27:16;15.10;58.20
27567;DHT22;15006;48.584;9.186;2023-07-20T02:29:42;15.10;58.10
27567;DHT22;15006;48.584;9.186;2023-07-20T02:32:09;15.10;58.30
27567;DHT22;15006;48.584;9.186;2023-07-20T02:34:35;15.00;58.20
27567;DHT22;15006;48.584;9.186;2023-07-20T02:37:02;15.00;58.40
27567;DHT22;15006;48.584;9.186;2023-07-20T02:39:28;15.00;58.30
27567;DHT22;15006;48.584;9.186;2023-07-20T02:41:54;14.90;58.20
27567;DHT22;15006;48.584;9.186;2023-07-20T02:44:20;14.90;58.30
27567;DHT22;15006;48.584;9.186;2023-07-20T02:46:46;14.90;58.30
27567;DHT22;15006;48.584;9.186;2023-07-20T02:49:13;14.90;58.40
27567;DHT22;15006;48.584;9.186;2023-07-20T02:51:39;14.90;58.60
27567;DHT22;15006;48.584;9.186;2023-07-20T02:54:05;14.90;58.60
27567;DHT22;15006;48.584;9.186;2023-07-20T02:56:31;14.90;58.40
27567;DHT22;15006;48.584;9.186;2023-07-20T02:58:57;14.90;58.50
27567;DHT22;15006;48.584;9.186;2023-07-20T03:01:23;14.80;58.40
27567;DHT22;15006;48.584;9.186;2023-07-20T03:03:48;14.80;58.40
27567;DHT22;15006;48.584;9.186;2023-07-20T03:06:16;14.80;58.40
27567;DHT22;15006;48.584;9.186;2023-07-20T03:08:45;14.80;58.40
27567;DHT22;15006;48.584;9.186;2023-07-20T03:11:16;14.70;58.50
27567;DHT22;15006;48.584;9.186;2023-07-20T03:13:44;14.70;58.50
27567;DHT22;15006;48.584;9.186;2023-07-20T03:16:13;14.70;58.50
27567;DHT22;15006;48.584;9.186;2023-07-20T03:18:43;14.60;58.60
27567;DHT22;15006;48.584;9.186;2023-07-20T03:21:10;14.50;58.50
27567;DHT22;15006;48.584;9.186;2023-07-20T03:23:40;14.40;58.70
27567;DHT22;15006;48.584;9.186;2023-07-20T03:26:07;14.30;58.90
27567;DHT22;15006;48.584;9.186;2023-07-20T03:28:37;14.30;59.30
27567;DHT22;15006;48.584;9.186;2023-07-20T03:31:04;14.10;59.60
27567;DHT22;15006;48.584;9.186;2023-07-20T03:33:31;14.10;59.50
27567;DHT22;15006;48.584;9.186;2023-07-20T03:35:58;13.90;59.70
27567;DHT22;15006;48.584;9.186;2023-07-20T03:38:25;13.90;59.90
27567;DHT22;15006;48.584;9.186;2023-07-20T03:40:53;13.70;60.00
27567;DHT22;15006;48.584;9.186;2023-07-20T03:43:24;13.70;60.40
27567;DHT22;15006;48.584;9.186;2023-07-20T03:45:51;13.60;60.60
27567;DHT22;15006;48.584;9.186;2023-07-20T03:48:19;13.50;61.00
27567;DHT22;15006;48.584;9.186;2023-07-20T03:50:51;13.50;61.30
27567;DHT22;15006;48.584;9.186;2023-07-20T03:53:19;13.40;61.80
27567;DHT22;15006;48.584;9.186;2023-07-20T03:55:49;13.40;62.30
27567;DHT22;15006;48.584;9.186;2023-07-20T03:58:17;13.30;62.50
27567;DHT22;15006;48.584;9.186;2023-07-20T04:00:49;13.20;62.70
27567;DHT22;15006;48.584;9.186;2023-07-20T04:03:19;13.10;63.20
27567;DHT22;15006;48.584;9.186;2023-07-20T04:05:45;13.00;63.40
27567;DHT22;15006;48.584;9.186;2023-07-20T04:08:11;12.90;64.20
27567;DHT22;15006;48.584;9.186;2023-07-20T04:10:38;12.80;64.50
27567;DHT22;15006;48.584;9.186;2023-07-20T04:13:04;12.80;64.90
27567;DHT22;15006;48.584;9.186;2023-07-20T04:15:31;12.70;65.30
27567;DHT22;15006;48.584;9.186;2023-07-20T04:17:57;12.70;65.90
27567;DHT22;15006;48.584;9.186;2023-07-20T04:20:23;12.60;66.10
27567;DHT22;15006;48.584;9.186;2023-07-20T04:22:49;12.50;66.30
27567;DHT22;15006;48.584;9.186;2023-07-20T04:25:17;12.50;66.90
27567;DHT22;15006;48.584;9.186;2023-07-20T04:27:44;12.50;67.60
27567;DHT22;15006;48.584;9.186;2023-07-20T04:30:11;12.50;68.10
27567;DHT22;15006;48.584;9.186;2023-07-20T04:32:38;12.50;68.60
27567;DHT22;15006;48.584;9.186;2023-07-20T04:35:09;12.60;69.20
27567;DHT22;15006;48.584;9.186;2023-07-20T04:37:35;12.60;69.00
27567;DHT22;15006;48.584;9.186;2023-07-20T04:40:01;12.70;69.20
27567;DHT22;15006;48.584;9.186;2023-07-20T04:42:29;12.70;69.40
27567;DHT22;15006;48.584;9.186;2023-07-20T04:44:55;12.80;69.10
27567;DHT22;15006;48.584;9.186;2023-07-20T04:47:21;12.90;68.80
27567;DHT22;15006;48.584;9.186;2023-07-20T04:49:47;13.00;68.80
27567;DHT22;15006;48.584;9.186;2023-07-20T04:52:13;13.20;68.50
27567;DHT22;15006;48.584;9.186;2023-07-20T04:54:39;13.20;68.10
27567;DHT22;15006;48.584;9.186;2023-07-20T04:57:12;13.30;67.60
27567;DHT22;15006;48.584;9.186;2023-07-20T04:59:38;13.50;67.90
27567;DHT22;15006;48.584;9.186;2023-07-20T05:02:04;13.50;67.20
27567;DHT22;15006;48.584;9.186;2023-07-20T05:04:30;13.60;66.90
27567;DHT22;15006;48.584;9.186;2023-07-20T05:06:56;13.80;66.70
27567;DHT22;15006;48.584;9.186;2023-07-20T05:09:22;13.90;66.50
27567;DHT22;15006;48.584;9.186;2023-07-20T05:11:49;13.90;66.20
27567;DHT22;15006;48.584;9.186;2023-07-20T05:14:15;14.10;65.90
27567;DHT22;15006;48.584;9.186;2023-07-20T05:16:41;14.20;65.50
27567;DHT22;15006;48.584;9.186;2023-07-20T05:19:06;14.30;65.30
27567;DHT22;15006;48.584;9.186;2023-07-20T05:21:32;14.50;64.80
27567;DHT22;15006;48.584;9.186;2023-07-20T05:23:58;14.50;64.70
27567;DHT22;15006;48.584;9.186;2023-07-20T05:26:25;14.60;64.00
27567;DHT22;15006;48.584;9.186;2023-07-20T05:28:51;14.80;63.90
27567;DHT22;15006;48.584;9.186;2023-07-20T05:31:17;14.80;64.30
27567;DHT22;15006;48.584;9.186;2023-07-20T05:33:43;15.00;63.20
27567;DHT22;15006;48.584;9.186;2023-07-20T05:36:09;15.00;63.10
27567;DHT22;15006;48.584;9.186;2023-07-20T05:38:35;15.20;63.10
27567;DHT22;15006;48.584;9.186;2023-07-20T05:41:01;15.30;62.80
27567;DHT22;15006;48.584;9.186;2023-07-20T05:43:27;15.30;62.40
27567;DHT22;15006;48.584;9.186;2023-07-20T05:45:53;15.40;61.80
27567;DHT22;15006;48.584;9.186;2023-07-20T05:48:19;15.50;61.70
27567;DHT22;15006;48.584;9.186;2023-07-20T05:50:45;15.60;61.70
27567;DHT22;15006;48.584;9.186;2023-07-20T05:53:11;15.70;61.30
27567;DHT22;15006;48.584;9.186;2023-07-20T05:55:37;15.70;61.10
27567;DHT22;15006;48.584;9.186;2023-07-20T05:58:04;15.80;61.10
27567;DHT22;15006;48.584;9.186;2023-07-20T06:00:30;15.90;61.00
27567;DHT22;15006;48.584;9.186;2023-07-20T06:02:56;16.00;61.00
27567;DHT22;15006;48.584;9.186;2023-07-20T06:05:22;16.00;61.10
27567;DHT22;15006;48.584;9.186;2023-07-20T06:07:49;16.10;60.50
27567;DHT22;15006;48.584;9.186;2023-07-20T06:10:16;16.20;60.20
27567;DHT22;15006;48.584;9.186;2023-07-20T06:12:42;16.20;59.90
27567;DHT22;15006;48.584;9.186;2023-07-20T06:15:27;16.20;59.70
27567;DHT22;15006;48.584;9.186;2023-07-20T06:18:01;16.30;60.20
27567;DHT22;15006;48.584;9.186;2023-07-20T06:20:27;16.30;60.40
27567;DHT22;15006;48.584;9.186;2023-07-20T06:22:53;16.40;60.20
27567;DHT22;15006;48.584;9.186;2023-07-20T06:25:19;16.50;60.20
27567;DHT22;15006;48.584;9.186;2023-07-20T06:27:46;16.60;60.70
27567;DHT22;15006;48.584;9.186;2023-07-20T06:30:14;16.60;60.40
27567;DHT22;15006;48.584;9.186;2023-07-20T06:32:40;16.70;60.20
27567;DHT22;15006;48.584;9.186;2023-07-20T06:35:06;16.70;59.80
27567;DHT22;15006;48.584;9.186;2023-07-20T06:37:33;16.80;59.70
27567;DHT22;15006;48.584;9.186;2023-07-20T06:39:58;16.90;59.70
27567;DHT22;15006;48.584;9.186;2023-07-20T06:42:24;16.90;59.50
27567;DHT22;15006;48.584;9.186;2023-07-20T06:44:50;17.10;59.60
27567;DHT22;15006;48.584;9.186;2023-07-20T06:47:16;17.20;59.60
27567;DHT22;15006;48.584;9.186;2023-07-20T06:49:42;17.30;59.20
27567;DHT22;15006;48.584;9.186;2023-07-20T06:52:08;17.40;59.10
27567;DHT22;15006;48.584;9.186;2023-07-20T06:54:34;17.60;59.20
27567;DHT22;15006;48.584;9.186;2023-07-20T06:57:00;17.70;58.20
27567;DHT22;15006;48.584;9.186;2023-07-20T06:59:26;17.80;57.90
27567;DHT22;15006;48.584;9.186;2023-07-20T07:01:52;17.90;57.50
27567;DHT22;15006;48.584;9.186;2023-07-20T07:04:18;18.00;57.40
27567;DHT22;15006;48.584;9.186;2023-07-20T07:06:44;18.10;57.30
27567;DHT22;15006;48.584;9.186;2023-07-20T07:09:10;18.20;56.50
27567;DHT22;15006;48.584;9.186;2023-07-20T07:11:36;18.20;56.40
27567;DHT22;15006;48.584;9.186;2023-07-20T07:14:03;18.30;56.30
27567;DHT22;15006;48.584;9.186;2023-07-20T07:16:29;18.50;56.50
27567;DHT22;15006;48.584;9.186;2023-07-20T07:18:55;18.50;56.10
27567;DHT22;15006;48.584;9.186;2023-07-20T07:21:21;18.60;55.00
27567;DHT22;15006;48.584;9.186;2023-07-20T07:23:47;18.70;54.90
27567;DHT22;15006;48.584;9.186;2023-07-20T07:26:13;18.70;55.10
27567;DHT22;15006;48.584;9.186;2023-07-20T07:28:39;18.70;54.70
27567;DHT22;15006;48.584;9.186;2023-07-20T07:31:06;18.80;54.60
27567;DHT22;15006;48.584;9.186;2023-07-20T07:33:32;18.90;54.50
27567;DHT22;15006;48.584;9.186;2023-07-20T07:35:58;18.90;54.60
27567;DHT22;15006;48.584;9.186;2023-07-20T07:38:24;19.00;54.40
27567;DHT22;15006;48.584;9.186;2023-07-20T07:40:50;19.00;54.30
27567;DHT22;15006;48.584;9.186;2023-07-20T07:43:16;19.10;54.20
27567;DHT22;15006;48.584;9.186;2023-07-20T07:45:42;19.20;53.90
27567;DHT22;15006;48.584;9.186;2023-07-20T07:48:08;19.30;53.60
27567;DHT22;15006;48.584;9.186;2023-07-20T07:50:37;19.40;54.00
27567;DHT22;15006;48.584;9.186;2023-07-20T07:53:04;19.40;53.20
27567;DHT22;15006;48.584;9.186;2023-07-20T07:55:30;19.50;53.10
27567;DHT22;15006;48.584;9.186;2023-07-20T07:57:55;19.50;53.00
27567;DHT22;15006;48.584;9.186;2023-07-20T08:00:22;19.50;52.90
27567;DHT22;15006;48.584;9.186;2023-07-20T08:02:50;19.60;53.00
27567;DHT22;15006;48.584;9.186;2023-07-20T08:05:16;19.60;52.40
27567;DHT22;15006;48.584;9.186;2023-07-20T08:07:42;19.60;52.50
27567;DHT22;15006;48.584;9.186;2023-07-20T08:10:09;19.60;52.10
27567;DHT22;15006;48.584;9.186;2023-07-20T08:12:35;19.60;52.20
27567;DHT22;15006;48.584;9.186;2023-07-20T08:15:01;19.50;52.20
27567;DHT22;15006;48.584;9.186;2023-07-20T08:17:28;19.50;52.30
27567;DHT22;15006;48.584;9.186;2023-07-20T08:19:54;19.50;53.20
27567;DHT22;15006;48.584;9.186;2023-07-20T08:22:20;19.50;53.20
27567;DHT22;15006;48.584;9.186;2023-07-20T08:24:46;19.70;53.30
27567;DHT22;15006;48.584;9.186;2023-07-20T08:27:12;19.90;53.70
27567;DHT22;15006;48.584;9.186;2023-07-20T08:29:38;20.20;53.70
27567;DHT22;15006;48.584;9.186;2023-07-20T08:32:06;20.50;53.00
27567;DHT22;15006;48.584;9.186;2023-07-20T08:34:32;20.70;51.40
27567;DHT22;15006;48.584;9.186;2023-07-20T08:36:58;21.00;50.80
27567;DHT22;15006;48.584;9.186;2023-07-20T08:39:24;21.30;50.80
27567;DHT22;15006;48.584;9.186;2023-07-20T08:41:51;21.60;50.00
27567;DHT22;15006;48.584;9.186;2023-07-20T08:44:20;21.90;49.80
27567;DHT22;15006;48.584;9.186;2023-07-20T08:46:47;22.10;48.70
27567;DHT22;15006;48.584;9.186;2023-07-20T08:49:15;22.30;47.80
27567;DHT22;15006;48.584;9.186;2023-07-20T08:51:43;22.50;47.70
27567;DHT22;15006;48.584;9.186;2023-07-20T08:54:12;22.60;47.20
27567;DHT22;15006;48.584;9.186;2023-07-20T08:56:40;22.70;46.10
27567;DHT22;15006;48.584;9.186;2023-07-20T08:59:08;22.60;46.60
27567;DHT22;15006;48.584;9.186;2023-07-20T09:01:35;22.50;44.90
27567;DHT22;15006;48.584;9.186;2023-07-20T09:04:02;22.50;45.20
27567;DHT22;15006;48.584;9.186;2023-07-20T09:06:29;22.40;45.70
27567;DHT22;15006;48.584;9.186;2023-07-20T09:08:55;22.40;46.20
27567;DHT22;15006;48.584;9.186;2023-07-20T09:11:21;22.50;45.70
27567;DHT22;15006;48.584;9.186;2023-07-20T09:13:47;22.60;45.40
27567;DHT22;15006;48.584;9.186;2023-07-20T09:16:13;22.60;45.10
27567;DHT22;15006;48.584;9.186;2023-07-20T09:18:40;22.70;44.30
27567;DHT22;15006;48.584;9.186;2023-07-20T09:21:07;22.60;44.20
27567;DHT22;15006;48.584;9.186;2023-07-20T09:23:34;22.60;44.40
27567;DHT22;15006;48.584;9.186;2023-07-20T09:26:14;22.50;44.80
27567;DHT22;15006;48.584;9.186;2023-07-20T09:28:42;22.40;44.60
27567;DHT22;15006;48.584;9.186;2023-07-20T09:31:36;22.20;45.00
27567;DHT22;15006;48.584;9.186;2023-07-20T09:34:02;22.10;45.30
27567;DHT22;15006;48.584;9.186;2023-07-20T09:36:29;22.10;45.70
27567;DHT22;15006;48.584;9.186;2023-07-20T09:38:55;22.10;45.40
27567;DHT22;15006;48.584;9.186;2023-07-20T09:41:21;22.10;45.70
27567;DHT22;15006;48.584;9.186;2023-07-20T09:43:48;22.20;46.60
27567;DHT22;15006;48.584;9.186;2023-07-20T09:46:15;22.30;45.90
27567;DHT22;15006;48.584;9.186;2023-07-20T09:48:54;22.60;46.10
27567;DHT22;15006;48.584;9.186;2023-07-20T09:51:22;22.90;46.10
27567;DHT22;15006;48.584;9.186;2023-07-20T09:53:52;23.20;45.10
27567;DHT22;15006;48.584;9.186;2023-07-20T09:56:21;23.60;45.10
27567;DHT22;15006;48.584;9.186;2023-07-20T09:58:50;23.90;43.30
27567;DHT22;15006;48.584;9.186;2023-07-20T10:01:20;24.10;41.70
27567;DHT22;15006;48.584;9.186;2023-07-20T10:03:49;24.10;41.30
27567;DHT22;15006;48.584;9.186;2023-07-20T10:06:22;24.00;41.20
27567;DHT22;15006;48.584;9.186;2023-07-20T10:08:52;23.90;39.70
27567;DHT22;15006;48.584;9.186;2023-07-20T10:11:21;23.90;40.10
27567;DHT22;15006;48.584;9.186;2023-07-20T10:13:50;23.90;40.20
27567;DHT22;15006;48.584;9.186;2023-07-20T10:16:28;23.90;40.30
27567;DHT22;15006;48.584;9.186;2023-07-20T10:19:03;24.10;40.10
27567;DHT22;15006;48.584;9.186;2023-07-20T10:22:34;24.20;38.80
27567;DHT22;15006;48.584;9.186;2023-07-20T10:24:45;24.40;39.00
27567;DHT22;15006;48.584;9.186;2023-07-20T10:27:13;24.60;37.70
27567;DHT22;15006;48.584;9.186;2023-07-20T10:29:41;24.70;37.50
27567;DHT22;15006;48.584;9.186;2023-07-20T10:32:08;24.80;37.10
27567;DHT22;15006;48.584;9.186;2023-07-20T10:34:35;25.00;38.00
27567;DHT22;15006;48.584;9.186;2023-07-20T10:37:00;25.20;37.60
27567;DHT22;15006;48.584;9.186;2023-07-20T10:39:28;25.30;37.00
27567;DHT22;15006;48.584;9.186;2023-07-20T10:42:06;25.40;37.40
27567;DHT22;15006;48.584;9.186;2023-07-20T10:44:33;25.50;35.50
27567;DHT22;15006;48.584;9.186;2023-07-20T10:47:01;25.60;35.60
27567;DHT22;15006;48.584;9.186;2023-07-20T10:49:28;25.70;35.70
27567;DHT22;15006;48.584;9.186;2023-07-20T10:51:59;25.60;34.00
27567;DHT22;15006;48.584;9.186;2023-07-20T10:56:52;25.50;35.20
27567;DHT22;15006;48.584;9.186;2023-07-20T11:01:57;25.70;35.40
27567;DHT22;15006;48.584;9.186;2023-07-20T11:04:47;25.70;35.00
27567;DHT22;15006;48.584;9.186;2023-07-20T11:07:35;25.90;33.50
27567;DHT22;15006;48.584;9.186;2023-07-20T11:10:23;25.90;33.10
27567;DHT22;15006;48.584;9.186;2023-07-20T11:13:18;25.90;32.80
27567;DHT22;15006;48.584;9.186;2023-07-20T11:16:03;25.90;32.70
27567;DHT22;15006;48.584;9.186;2023-07-20T11:18:30;26.00;31.90
27567;DHT22;15006;48.584;9.186;2023-07-20T11:20:59;26.00;33.90
27567;DHT22;15006;48.584;9.186;2023-07-20T11:23:25;26.10;33.10
27567;DHT22;15006;48.584;9.186;2023-07-20T11:25:51;26.20;32.30
27567;DHT22;15006;48.584;9.186;2023-07-20T11:28:17;26.30;31.80
27567;DHT22;15006;48.584;9.186;2023-07-20T11:30:43;26.30;31.50
27567;DHT22;15006;48.584;9.186;2023-07-20T11:33:09;26.30;32.50
27567;DHT22;15006;48.584;9.186;2023-07-20T11:35:41;26.30;32.60
27567;DHT22;15006;48.584;9.186;2023-07-20T11:38:08;26.40;32.00
27567;DHT22;15006;48.584;9.186;2023-07-20T11:40:34;26.60;31.60
27567;DHT22;15006;48.584;9.186;2023-07-20T11:43:01;26.70;31.40
27567;DHT22;15006;48.584;9.186;2023-07-20T11:45:27;26.90;31.80
27567;DHT22;15006;48.584;9.186;2023-07-20T11:47:58;27.00;32.10
27567;DHT22;15006;48.584;9.186;2023-07-20T11:50:29;27.10;32.10
27567;DHT22;15006;48.584;9.186;2023-07-20T11:52:55;27.30;32.00
27567;DHT22;15006;48.584;9.186;2023-07-20T11:55:22;27.50;31.40
27567;DHT22;15006;48.584;9.186;2023-07-20T11:58:04;27.60;31.20
27567;DHT22;15006;48.584;9.186;2023-07-20T12:00:34;27.80;30.20
27567;DHT22;15006;48.584;9.186;2023-07-20T12:03:01;27.80;30.30
27567;DHT22;15006;48.584;9.186;2023-07-20T12:05:27;27.80;32.10
27567;DHT22;15006;48.584;9.186;2023-07-20T12:07:54;27.90;30.60
27567;DHT22;15006;48.584;9.186;2023-07-20T12:10:26;27.90;30.70
27567;DHT22;15006;48.584;9.186;2023-07-20T12:12:52;28.00;29.80
27567;DHT22;15006;48.584;9.186;2023-07-20T12:15:26;28.10;29.70
27567;DHT22;15006;48.584;9.186;2023-07-20T12:17:53;28.00;30.30
27567;DHT22;15006;48.584;9.186;2023-07-20T12:20:28;27.90;30.10
27567;DHT22;15006;48.584;9.186;2023-07-20T12:23:09;27.90;30.70
27567;DHT22;15006;48.584;9.186;2023-07-20T12:25:43;28.00;31.50
27567;DHT22;15006;48.584;9.186;2023-07-20T12:28:15;28.20;30.60
27567;DHT22;15006;48.584;9.186;2023-07-20T12:30:43;28.30;30.00
27567;DHT22;15006;48.584;9.186;2023-07-20T12:33:10;28.40;30.20
27567;DHT22;15006;48.584;9.186;2023-07-20T12:35:37;28.60;29.90
27567;DHT22;15006;48.584;9.186;2023-07-20T12:38:03;28.90;29.90
27567;DHT22;15006;48.584;9.186;2023-07-20T12:40:30;29.10;29.30
27567;DHT22;15006;48.584;9.186;2023-07-20T12:42:57;29.20;28.80
27567;DHT22;15006;48.584;9.186;2023-07-20T12:45:23;29.30;28.60
27567;DHT22;15006;48.584;9.186;2023-07-20T12:47:49;29.20;28.10
27567;DHT22;15006;48.584;9.186;2023-07-20T12:50:15;29.10;28.90
27567;DHT22;15006;48.584;9.186;2023-07-20T12:52:41;29.00;29.30
27567;DHT22;15006;48.584;9.186;2023-07-20T12:55:08;28.90;29.00
27567;DHT22;15006;48.584;9.186;2023-07-20T12:57:36;29.00;29.10
27567;DHT22;15006;48.584;9.186;2023-07-20T13:00:04;29.00;29.00
27567;DHT22;15006;48.584;9.186;2023-07-20T13:02:32;29.10;28.90
27567;DHT22;15006;48.584;9.186;2023-07-20T13:04:58;29.20;29.80
27567;DHT22;15006;48.584;9.186;2023-07-20T13:07:32;29.30;29.20
27567;DHT22;15006;48.584;9.186;2023-07-20T13:10:00;29.20;28.50
27567;DHT22;15006;48.584;9.186;2023-07-20T13:12:28;29.10;28.40
27567;DHT22;15006;48.584;9.186;2023-07-20T13:14:55;29.10;28.80
27567;DHT22;15006;48.584;9.186;2023-07-20T13:17:23;29.00;28.90
27567;DHT22;15006;48.584;9.186;2023-07-20T13:19:49;29.10;28.30
27567;DHT22;15006;48.584;9.186;2023-07-20T13:22:15;29.10;28.90
27567;DHT22;15006;48.584;9.186;2023-07-20T13:24:41;29.20;28.70
27567;DHT22;15006;48.584;9.186;2023-07-20T13:27:07;29.30;27.70
27567;DHT22;15006;48.584;9.186;2023-07-20T13:29:33;29.20;28.20
27567;DHT22;15006;48.584;9.186;2023-07-20T13:31:59;29.10;28.20
27567;DHT22;15006;48.584;9.186;2023-07-20T13:34:26;29.10;28.70
27567;DHT22;15006;48.584;9.186;2023-07-20T13:36:52;29.20;28.90
27567;DHT22;15006;48.584;9.186;2023-07-20T13:39:18;29.40;29.00
27567;DHT22;15006;48.584;9.186;2023-07-20T13:41:45;29.60;28.40
27567;DHT22;15006;48.584;9.186;2023-07-20T13:44:11;29.80;27.90
27567;DHT22;15006;48.584;9.186;2023-07-20T13:46:37;29.90;26.70
27567;DHT22;15006;48.584;9.186;2023-07-20T13:49:04;29.90;26.70
27567;DHT22;15006;48.584;9.186;2023-07-20T13:51:30;30.00;27.30
27567;DHT22;15006;48.584;9.186;2023-07-20T13:53:57;30.20;28.20
27567;DHT22;15006;48.584;9.186;2023-07-20T13:56:24;30.30;28.00
27567;DHT22;15006;48.584;9.186;2023-07-20T13:58:50;30.40;27.90
27567;DHT22;15006;48.584;9.186;2023-07-20T14:01:17;30.60;28.00
27567;DHT22;15006;48.584;9.186;2023-07-20T14:03:46;30.70;27.10
27567;DHT22;15006;48.584;9.186;2023-07-20T14:06:12;30.90;27.30
27567;DHT22;15006;48.584;9.186;2023-07-20T14:08:39;31.10;27.10
27567;DHT22;15006;48.584;9.186;2023-07-20T14:11:05;31.20;26.90
27567;DHT22;15006;48.584;9.186;2023-07-20T14:13:31;31.30;26.90
27567;DHT22;15006;48.584;9.186;2023-07-20T14:15:58;31.50;27.50
27567;DHT22;15006;48.584;9.186;2023-07-20T14:18:24;31.70;26.40
27567;DHT22;15006;48.584;9.186;2023-07-20T14:20:50;32.00;26.20
27567;DHT22;15006;48.584;9.186;2023-07-20T14:23:16;32.20;26.00
27567;DHT22;15006;48.584;9.186;2023-07-20T14:25:42;32.30;25.90
27567;DHT22;15006;48.584;9.186;2023-07-20T14:28:08;32.30;25.60
27567;DHT22;15006;48.584;9.186;2023-07-20T14:30:34;32.20;25.20
27567;DHT22;15006;48.584;9.186;2023-07-20T14:33:00;32.00;25.00
27567;DHT22;15006;48.584;9.186;2023-07-20T14:35:26;31.90;25.20
27567;DHT22;15006;48.584;9.186;2023-07-20T14:37:52;31.90;25.80
27567;DHT22;15006;48.584;9.186;2023-07-20T14:40:18;32.00;25.90
27567;DHT22;15006;48.584;9.186;2023-07-20T14:42:44;32.20;25.10
27567;DHT22;15006;48.584;9.186;2023-07-20T14:45:10;32.40;25.60
27567;DHT22;15006;48.584;9.186;2023-07-20T14:47:36;32.40;25.00
27567;DHT22;15006;48.584;9.186;2023-07-20T14:50:03;32.40;24.80
27567;DHT22;15006;48.584;9.186;2023-07-20T14:52:30;32.20;24.70
27567;DHT22;15006;48.584;9.186;2023-07-20T14:54:57;31.90;25.20
27567;DHT22;15006;48.584;9.186;2023-07-20T14:57:23;31.80;25.80
27567;DHT22;15006;48.584;9.186;2023-07-20T14:59:49;31.70;25.70
27567;DHT22;15006;48.584;9.186;2023-07-20T15:02:16;31.70;25.40
27567;DHT22;15006;48.584;9.186;2023-07-20T15:04:48;31.70;25.60
27567;DHT22;15006;48.584;9.186;2023-07-20T15:07:19;31.70;25.20
27567;DHT22;15006;48.584;9.186;2023-07-20T15:09:47;31.80;25.20
27567;DHT22;15006;48.584;9.186;2023-07-20T15:12:13;31.90;25.80
27567;DHT22;15006;48.584;9.186;2023-07-20T15:14:40;31.90;25.50
27567;DHT22;15006;48.584;9.186;2023-07-20T15:17:11;31.80;25.10
27567;DHT22;15006;48.584;9.186;2023-07-20T15:19:38;31.80;25.40
27567;DHT22;15006;48.584;9.186;2023-07-20T15:22:04;31.60;25.80
27567;DHT22;15006;48.584;9.186;2023-07-20T15:24:32;31.60;25.90
27567;DHT22;15006;48.584;9.186;2023-07-20T15:27:00;31.50;26.20
27567;DHT22;15006;48.584;9.186;2023-07-20T15:29:26;31.60;26.10
27567;DHT22;15006;48.584;9.186;2023-07-20T15:31:52;31.60;26.00
27567;DHT22;15006;48.584;9.186;2023-07-20T15:34:18;31.50;25.40
27567;DHT22;15006;48.584;9.186;2023-07-20T15:36:44;31.30;25.40
27567;DHT22;15006;48.584;9.186;2023-07-20T15:39:10;31.00;25.60
27567;DHT22;15006;48.584;9.186;2023-07-20T15:41:37;30.70;26.00
27567;DHT22;15006;48.584;9.186;2023-07-20T15:44:03;30.40;26.20
27567;DHT22;15006;48.584;9.186;2023-07-20T15:49:05;30.10;26.80
27567;DHT22;15006;48.584;9.186;2023-07-20T15:51:32;29.90;26.80
27567;DHT22;15006;48.584;9.186;2023-07-20T15:53:59;29.90;27.30